Terminal Aerodrome Forecast
Issued by NWS

Home | Current Version | Previous Version | Text Only | Print | Product List | Glossary On
Versions: 1 2 3 4 5 6 7 8 9 10 11 12 13
728
FTUS43 KMQT 111736
TAFIWD
TAF
KIWD 111736Z 1118/1218 26005KT P6SM FEW015 BKN080
     FM112200 26007KT P6SM SCT090
     FM120300 26009KT P6SM BKN024
     FM120600 28010KT 3SM -SHSN BKN024
     FM121100 31013KT 3SM -SHSN BKN012
      AMD LTD TO CLD VIS AND WIND=

USA.gov is the U.S. government's official web portal to all federal, state and local government web resources and services.